createdAt,value
2022-11-05T00:00:35.430Z,35.25
2022-11-05T00:03:21.062Z,28.05
2022-11-05T00:06:09.250Z,24.85
2022-11-05T00:08:54.932Z,31.90
2022-11-05T00:11:42.066Z,31.15
2022-11-05T00:14:27.489Z,25.88
2022-11-05T00:16:54.645Z,27.77
2022-11-05T00:19:21.645Z,35.25
2022-11-05T00:22:07.331Z,33.33
2022-11-05T00:24:52.859Z,30.95
2022-11-05T00:27:19.933Z,27.02
2022-11-05T00:29:46.902Z,30.40
2022-11-05T00:32:13.882Z,24.05
2022-11-05T00:34:40.864Z,29.45
2022-11-05T00:37:17.464Z,29.10
2022-11-05T00:39:44.511Z,34.20
2022-11-05T00:42:30.049Z,29.23
2022-11-05T00:45:03.183Z,30.70
2022-11-05T00:47:50.093Z,32.72
2022-11-05T00:50:18.017Z,34.38
2022-11-05T00:52:57.440Z,33.03
2022-11-05T00:55:38.360Z,29.15
2022-11-05T00:58:08.466Z,32.90
2022-11-05T01:00:38.169Z,28.58
2022-11-05T01:03:08.777Z,31.35
2022-11-05T01:05:40.463Z,28.05
2022-11-05T01:08:07.573Z,27.35
2022-11-05T01:10:34.594Z,29.77
2022-11-05T01:13:01.689Z,26.83
2022-11-05T01:15:29.142Z,26.70
2022-11-05T01:17:56.199Z,23.23
2022-11-05T01:20:23.355Z,22.02
2022-11-05T01:22:50.405Z,20.17
2022-11-05T01:25:17.390Z,22.33
2022-11-05T01:27:44.921Z,19.70
2022-11-05T01:30:12.572Z,19.73
2022-11-05T01:32:39.800Z,18.10
2022-11-05T01:35:10.763Z,15.48
2022-11-05T01:37:37.810Z,18.02
2022-11-05T01:40:06.013Z,14.90
2022-11-05T01:42:33.863Z,15.40
2022-11-05T01:45:09.754Z,16.58
2022-11-05T01:47:39.604Z,14.85
2022-11-05T01:50:24.795Z,17.00
2022-11-05T01:52:55.974Z,16.92
2022-11-05T01:55:28.384Z,18.42
2022-11-05T01:57:58.550Z,19.80
2022-11-05T02:00:25.672Z,21.88
2022-11-05T02:02:53.129Z,24.77
2022-11-05T02:05:20.408Z,22.55
2022-11-05T02:07:48.367Z,27.15
2022-11-05T02:10:18.269Z,26.50
2022-11-05T02:12:47.668Z,24.65
2022-11-05T02:15:30.801Z,23.65
2022-11-05T02:20:52.528Z,23.70
2022-11-05T02:23:46.336Z,23.48
2022-11-05T02:26:35.179Z,24.60
2022-11-05T02:29:05.222Z,24.27
2022-11-05T02:31:50.472Z,22.08
2022-11-05T02:34:48.959Z,23.40
2022-11-05T02:37:57.877Z,19.92
2022-11-05T02:40:34.072Z,20.73
2022-11-05T02:43:09.407Z,20.85
2022-11-05T02:46:17.954Z,19.77
2022-11-05T02:49:07.777Z,22.20
2022-11-05T02:52:06.588Z,15.80
2022-11-05T02:54:44.128Z,16.05
2022-11-05T02:57:11.138Z,16.25
2022-11-05T02:59:38.201Z,13.43
2022-11-05T03:02:06.436Z,15.65
2022-11-05T03:04:33.741Z,13.57
2022-11-05T03:07:27.907Z,14.95
2022-11-05T03:10:03.385Z,14.35
2022-11-05T03:12:45.320Z,11.35
2022-11-05T03:15:21.455Z,10.90
2022-11-05T03:18:36.483Z,10.43
2022-11-05T03:21:17.436Z,9.35
2022-11-05T03:23:54.821Z,9.65
2022-11-05T03:26:35.952Z,9.10
2022-11-05T03:29:08.864Z,7.53
2022-11-05T03:34:06.852Z,7.88
2022-11-05T03:36:39.803Z,9.05
2022-11-05T03:41:38.962Z,6.78
2022-11-05T03:44:08.379Z,2.72
2022-11-05T03:46:41.581Z,3.22
2022-11-05T03:49:12.947Z,5.10
2022-11-05T03:51:48.831Z,1.48
2022-11-05T03:54:16.168Z,3.60
2022-11-05T03:56:48.913Z,2.10
2022-11-05T03:59:17.211Z,1.83
2022-11-05T04:01:44.600Z,1.40
2022-11-05T04:04:11.722Z,2.60
2022-11-05T04:06:57.460Z,2.17
2022-11-05T04:09:43.047Z,5.57
2022-11-05T04:12:29.719Z,3.97
2022-11-05T04:14:56.755Z,3.38
2022-11-05T04:17:23.785Z,3.33
2022-11-05T04:20:09.355Z,2.55
2022-11-05T04:22:54.997Z,3.33
2022-11-05T04:25:22.874Z,5.25
2022-11-05T04:27:49.911Z,4.60
2022-11-05T04:30:18.704Z,3.92
2022-11-05T04:33:09.314Z,3.58
2022-11-05T04:35:36.643Z,2.22
2022-11-05T04:38:08.756Z,5.20
2022-11-05T04:40:36.464Z,2.57
2022-11-05T04:43:04.507Z,3.15
2022-11-05T04:45:34.636Z,3.78
2022-11-05T04:48:02.529Z,4.88
2022-11-05T04:50:29.556Z,3.28
2022-11-05T04:52:57.091Z,1.98
2022-11-05T04:55:24.226Z,1.88
2022-11-05T04:57:52.223Z,2.25
2022-11-05T05:00:20.841Z,2.63
2022-11-05T05:02:48.601Z,3.47
2022-11-05T05:05:15.960Z,3.50
2022-11-05T05:07:43.007Z,3.92
2022-11-05T05:10:11.186Z,3.70
2022-11-05T05:12:38.224Z,1.88
2022-11-05T05:15:05.911Z,1.95
2022-11-05T05:17:32.998Z,3.28
2022-11-05T05:20:18.647Z,1.50
2022-11-05T05:22:53.181Z,2.00
2022-11-05T05:25:20.360Z,2.35
2022-11-05T05:27:47.352Z,1.30
2022-11-05T05:30:14.433Z,1.08
2022-11-05T05:32:41.468Z,1.30
2022-11-05T05:35:08.929Z,4.57
2022-11-05T05:37:35.937Z,5.35
2022-11-05T05:40:02.934Z,4.13
2022-11-05T05:42:29.935Z,5.15
2022-11-05T05:44:56.999Z,5.03
2022-11-05T05:47:23.964Z,4.25
2022-11-05T05:49:50.946Z,6.13
2022-11-05T05:52:18.063Z,4.60
2022-11-05T05:54:45.040Z,3.33
2022-11-05T05:57:13.380Z,4.75
2022-11-05T05:59:40.354Z,2.83
2022-11-05T06:02:07.424Z,3.53
2022-11-05T06:04:34.483Z,3.10
2022-11-05T06:07:01.447Z,3.85
2022-11-05T06:09:28.674Z,2.53
2022-11-05T06:11:55.790Z,3.47
2022-11-05T06:14:22.756Z,4.28
2022-11-05T06:16:49.792Z,2.40
2022-11-05T06:19:16.785Z,2.65
2022-11-05T06:21:44.161Z,2.50
2022-11-05T06:24:11.364Z,4.95
2022-11-05T06:26:43.377Z,4.15
2022-11-05T06:29:13.415Z,2.03
2022-11-05T06:31:40.684Z,2.83
2022-11-05T06:34:07.751Z,4.07
2022-11-05T06:36:34.777Z,5.00
2022-11-05T06:39:01.730Z,4.13
2022-11-05T06:41:28.737Z,5.15
2022-11-05T06:43:55.922Z,5.85
2022-11-05T06:46:23.043Z,5.88
2022-11-05T06:48:51.150Z,5.13
2022-11-05T06:51:18.217Z,3.88
2022-11-05T06:53:45.166Z,5.47
2022-11-05T06:56:12.289Z,5.10
2022-11-05T06:58:39.330Z,7.13
2022-11-05T07:01:10.790Z,7.60
2022-11-05T07:03:38.787Z,7.40
2022-11-05T07:06:07.114Z,6.95
2022-11-05T07:08:35.026Z,4.43
2022-11-05T07:11:02.233Z,5.25
2022-11-05T07:13:29.297Z,5.25
2022-11-05T07:15:56.754Z,3.47
2022-11-05T07:18:23.857Z,5.82
2022-11-05T07:20:51.087Z,6.07
2022-11-05T07:23:18.217Z,4.90
2022-11-05T07:25:45.389Z,10.00
2022-11-05T07:28:12.463Z,14.70
2022-11-05T07:30:39.448Z,8.45
2022-11-05T07:33:06.504Z,5.05
2022-11-05T07:35:33.635Z,10.77
2022-11-05T07:38:01.106Z,4.22
2022-11-05T07:40:29.518Z,7.40
2022-11-05T07:42:58.630Z,5.55
2022-11-05T07:45:27.318Z,6.47
2022-11-05T07:47:57.125Z,7.68
2022-11-05T07:50:27.433Z,4.50
2022-11-05T07:52:59.718Z,4.25
2022-11-05T07:55:26.775Z,7.70
2022-11-05T07:57:53.832Z,9.45
2022-11-05T08:00:23.125Z,6.85
2022-11-05T08:03:07.222Z,8.82
2022-11-05T08:05:40.527Z,7.93
2022-11-05T08:08:11.792Z,12.05
2022-11-05T08:10:39.548Z,7.82
2022-11-05T08:13:08.039Z,4.97
2022-11-05T08:15:36.592Z,5.95
2022-11-05T08:18:23.860Z,7.47
2022-11-05T08:20:50.820Z,10.95
2022-11-05T08:23:19.008Z,6.15
2022-11-05T08:25:46.479Z,8.98
2022-11-05T08:28:14.105Z,14.88
2022-11-05T08:30:41.557Z,13.18
2022-11-05T08:33:11.340Z,7.13
2022-11-05T08:35:39.734Z,13.68
2022-11-05T08:38:08.527Z,8.48
2022-11-05T08:40:36.721Z,8.00
2022-11-05T08:43:06.941Z,8.18
2022-11-05T08:45:38.307Z,11.07
2022-11-05T08:48:11.559Z,14.00
2022-11-05T08:53:07.371Z,19.85
2022-11-05T08:55:34.755Z,17.88
2022-11-05T08:58:04.970Z,21.52
2022-11-05T09:00:35.196Z,20.58
2022-11-05T09:03:04.220Z,17.08
2022-11-05T09:05:32.601Z,15.00
2022-11-05T09:08:01.550Z,14.15
2022-11-05T09:10:28.934Z,15.23
2022-11-05T09:12:56.359Z,15.50
2022-11-05T09:15:24.561Z,14.90
2022-11-05T09:17:51.896Z,13.77
2022-11-05T09:20:19.858Z,17.10
2022-11-05T09:22:46.914Z,14.43
2022-11-05T09:25:16.124Z,13.50
2022-11-05T09:27:43.851Z,15.38
2022-11-05T09:30:12.613Z,12.20
2022-11-05T09:32:40.131Z,9.30
2022-11-05T09:35:08.150Z,7.10
2022-11-05T09:37:36.485Z,7.18
2022-11-05T09:40:04.490Z,5.32
2022-11-05T09:42:42.573Z,6.28
2022-11-05T09:45:20.832Z,7.45
2022-11-05T09:47:52.452Z,6.88
2022-11-05T09:50:30.724Z,7.18
2022-11-05T09:52:58.455Z,7.20
2022-11-05T09:55:33.715Z,5.25
2022-11-05T09:58:27.568Z,5.32
2022-11-05T10:00:57.281Z,7.35
2022-11-05T10:03:26.916Z,6.38
2022-11-05T10:05:56.111Z,6.50
2022-11-05T10:08:23.167Z,7.97
2022-11-05T10:10:54.204Z,8.98
2022-11-05T10:13:36.771Z,8.68
2022-11-05T10:16:31.110Z,8.57
2022-11-05T10:19:01.797Z,7.25
2022-11-05T10:21:59.612Z,7.10
2022-11-05T10:24:20.215Z,8.25
2022-11-05T10:26:49.556Z,8.63
2022-11-05T10:29:43.569Z,5.68
2022-11-05T10:32:15.359Z,5.93
2022-11-05T10:34:42.963Z,5.38
2022-11-05T10:37:10.649Z,5.22
2022-11-05T10:39:37.717Z,5.30
2022-11-05T10:42:11.416Z,4.97
2022-11-05T10:45:01.564Z,5.75
2022-11-05T10:47:48.139Z,4.50
2022-11-05T10:50:30.039Z,4.60
2022-11-05T10:53:01.463Z,4.85
2022-11-05T10:55:40.921Z,5.10
2022-11-05T10:58:15.482Z,7.38
2022-11-05T11:01:00.841Z,6.88
2022-11-05T11:03:40.343Z,5.18
2022-11-05T11:06:21.723Z,4.90
2022-11-05T11:08:50.194Z,5.45
2022-11-05T11:11:41.806Z,10.35
2022-11-05T11:14:14.577Z,10.73
2022-11-05T11:16:43.974Z,5.78
2022-11-05T11:19:36.742Z,8.85
2022-11-05T11:22:03.700Z,9.77
2022-11-05T11:24:37.336Z,6.68
2022-11-05T11:27:09.626Z,6.65
2022-11-05T11:29:42.874Z,8.20
2022-11-05T11:32:23.568Z,9.05
2022-11-05T11:34:58.702Z,7.70
2022-11-05T11:37:30.483Z,5.85
2022-11-05T11:40:04.492Z,5.18
2022-11-05T11:42:35.828Z,9.65
2022-11-05T11:45:35.813Z,6.57
2022-11-05T11:48:06.351Z,7.53
2022-11-05T11:50:45.452Z,8.80
2022-11-05T11:53:21.342Z,5.10
2022-11-05T11:56:06.824Z,9.65
2022-11-05T11:58:38.901Z,8.13
2022-11-05T12:01:14.780Z,6.20
2022-11-05T12:03:54.768Z,8.27
2022-11-05T12:06:41.887Z,9.63
2022-11-05T12:09:24.778Z,9.02
2022-11-05T12:12:03.499Z,8.85
2022-11-05T12:14:46.201Z,8.57
2022-11-05T12:20:24.446Z,6.97
2022-11-05T12:23:00.209Z,6.32
2022-11-05T12:25:39.996Z,5.90
2022-11-05T12:28:22.040Z,4.70
2022-11-05T12:31:10.505Z,6.93
2022-11-05T12:34:01.545Z,7.07
2022-11-05T12:36:43.033Z,7.70
2022-11-05T12:39:22.029Z,7.82
2022-11-05T12:41:51.733Z,8.95
2022-11-05T12:44:41.760Z,10.82
2022-11-05T12:47:39.684Z,7.55
2022-11-05T12:50:18.148Z,7.95
2022-11-05T12:52:48.104Z,7.10
2022-11-05T12:55:27.339Z,5.45
2022-11-05T12:58:01.314Z,5.47
2022-11-05T13:00:30.692Z,5.13
2022-11-05T13:03:05.247Z,5.18
2022-11-05T13:05:45.437Z,5.93
2022-11-05T13:08:24.504Z,7.78
2022-11-05T13:11:21.440Z,7.40
2022-11-05T13:13:57.571Z,9.75
2022-11-05T13:16:30.926Z,10.32
2022-11-05T13:19:14.573Z,9.32
2022-11-05T13:21:45.643Z,8.63
2022-11-05T13:24:27.190Z,6.10
2022-11-05T13:27:20.175Z,9.07
2022-11-05T13:30:23.018Z,9.18
2022-11-05T13:32:59.903Z,6.30
2022-11-05T13:35:31.923Z,7.57
2022-11-05T13:38:23.771Z,5.35
2022-11-05T13:41:25.751Z,18.85
2022-11-05T13:43:58.455Z,7.00
2022-11-05T13:46:33.978Z,6.07
2022-11-05T13:49:44.073Z,7.78
2022-11-05T13:52:25.783Z,6.53
2022-11-05T13:55:01.271Z,8.35
2022-11-05T13:57:55.631Z,7.80
2022-11-05T14:00:27.556Z,7.43
2022-11-05T14:03:05.347Z,7.97
2022-11-05T14:05:41.555Z,10.23
2022-11-05T14:08:12.315Z,14.43
2022-11-05T14:10:44.427Z,18.35
2022-11-05T14:13:34.557Z,18.73
2022-11-05T14:16:09.375Z,15.13
2022-11-05T14:18:45.181Z,18.23
2022-11-05T14:21:30.531Z,10.05
2022-11-05T14:24:19.748Z,9.25
2022-11-05T14:27:06.737Z,11.38
2022-11-05T14:29:47.993Z,12.75
2022-11-05T14:32:17.772Z,13.43
2022-11-05T14:35:15.514Z,15.40
2022-11-05T14:37:58.985Z,16.58
2022-11-05T14:40:29.523Z,14.85
2022-11-05T14:43:17.997Z,14.35
2022-11-05T14:46:03.365Z,13.45
2022-11-05T14:48:53.042Z,12.32
2022-11-05T14:51:26.238Z,12.15
2022-11-05T14:54:22.187Z,12.93
2022-11-05T14:57:07.469Z,16.73
2022-11-05T14:59:54.386Z,15.27
2022-11-05T15:02:27.898Z,13.52
2022-11-05T15:05:35.136Z,13.93
2022-11-05T15:08:29.288Z,11.88
2022-11-05T15:11:18.725Z,10.68
2022-11-05T15:13:54.874Z,13.60
2022-11-05T15:16:40.979Z,12.45
2022-11-05T15:19:27.448Z,13.68
2022-11-05T15:21:57.637Z,15.25
2022-11-05T15:24:28.316Z,14.18
2022-11-05T15:27:10.620Z,11.88
2022-11-05T15:29:38.156Z,12.37
2022-11-05T15:32:05.808Z,10.70
2022-11-05T15:34:37.154Z,13.82
2022-11-05T15:37:22.384Z,12.30
2022-11-05T15:39:52.426Z,14.30
2022-11-05T15:42:28.534Z,15.30
2022-11-05T15:45:00.850Z,15.13
2022-11-05T15:47:35.048Z,15.13
2022-11-05T15:50:18.453Z,18.80
2022-11-05T15:52:51.142Z,13.40
2022-11-05T15:55:23.852Z,14.55
2022-11-05T15:58:06.478Z,14.68
2022-11-05T16:00:36.682Z,17.17
2022-11-05T16:03:17.816Z,14.55
2022-11-05T16:05:48.632Z,28.67
2022-11-05T16:08:24.171Z,19.48
2022-11-05T16:11:01.774Z,15.60
2022-11-05T16:13:35.448Z,15.40
2022-11-05T16:16:07.316Z,19.20
2022-11-05T16:18:38.744Z,17.80
2022-11-05T16:21:24.009Z,18.50
2022-11-05T16:23:59.805Z,13.98
2022-11-05T16:27:01.258Z,14.43
2022-11-05T16:29:29.525Z,17.75
2022-11-05T16:31:59.049Z,19.90
2022-11-05T16:34:34.321Z,17.90
2022-11-05T16:37:05.252Z,17.48
2022-11-05T16:39:32.776Z,18.67
2022-11-05T16:42:00.115Z,16.08
2022-11-05T16:44:27.274Z,15.85
2022-11-05T16:46:54.381Z,17.85
2022-11-05T16:49:21.502Z,15.65
2022-11-05T16:51:48.613Z,14.88
2022-11-05T16:54:15.579Z,14.70
2022-11-05T16:56:46.037Z,13.50
2022-11-05T16:59:13.675Z,14.38
2022-11-05T17:01:45.406Z,12.75
2022-11-05T17:04:13.999Z,14.38
2022-11-05T17:06:41.097Z,17.40
2022-11-05T17:09:08.128Z,14.68
2022-11-05T17:11:35.266Z,15.63
2022-11-05T17:14:02.279Z,16.80
2022-11-05T17:16:29.513Z,15.73
2022-11-05T17:18:57.000Z,16.52
2022-11-05T17:21:24.152Z,14.73
2022-11-05T17:23:51.443Z,15.73
2022-11-05T17:26:18.781Z,15.43
2022-11-05T17:28:45.785Z,12.30
2022-11-05T17:31:14.201Z,15.15
2022-11-05T17:33:41.874Z,16.73
2022-11-05T17:36:11.099Z,18.40
2022-11-05T17:38:38.209Z,18.45
2022-11-05T17:41:20.686Z,13.57
2022-11-05T17:43:48.405Z,15.85
2022-11-05T17:46:17.020Z,20.38
2022-11-05T17:48:44.881Z,18.75
2022-11-05T17:51:15.634Z,16.58
2022-11-05T17:53:44.606Z,16.33
2022-11-05T17:56:27.200Z,17.40
2022-11-05T17:59:00.825Z,18.02
2022-11-05T18:01:33.141Z,17.88
2022-11-05T18:04:05.384Z,17.33
2022-11-05T18:06:35.711Z,20.02
2022-11-05T18:09:03.114Z,18.88
2022-11-05T18:11:30.106Z,20.63
2022-11-05T18:13:57.136Z,20.55
2022-11-05T18:16:25.071Z,29.05
2022-11-05T18:18:52.080Z,20.20
2022-11-05T18:21:19.208Z,17.85
2022-11-05T18:23:46.367Z,20.13
2022-11-05T18:26:15.757Z,15.70
2022-11-05T18:28:43.708Z,18.15
2022-11-05T18:31:20.694Z,17.70
2022-11-05T18:33:49.934Z,17.83
2022-11-05T18:36:23.071Z,19.10
2022-11-05T18:38:50.402Z,22.13
2022-11-05T18:41:18.228Z,19.25
2022-11-05T18:43:45.367Z,21.75
2022-11-05T18:46:29.195Z,21.55
2022-11-05T18:49:00.368Z,20.38
2022-11-05T18:51:28.335Z,16.48
2022-11-05T18:53:56.034Z,15.65
2022-11-05T18:56:23.625Z,15.48
2022-11-05T18:59:14.658Z,16.13
2022-11-05T19:01:40.212Z,15.07
2022-11-05T19:04:07.306Z,11.90
2022-11-05T19:06:37.607Z,11.25
2022-11-05T19:09:07.199Z,12.32
2022-11-05T19:11:34.580Z,12.40
2022-11-05T19:14:01.692Z,13.43
2022-11-05T19:16:30.461Z,11.57
2022-11-05T19:19:02.411Z,11.45
2022-11-05T19:21:29.833Z,12.80
2022-11-05T19:24:00.396Z,14.55
2022-11-05T19:26:29.051Z,15.30
2022-11-05T19:28:58.896Z,12.70
2022-11-05T19:31:30.119Z,12.27
2022-11-05T19:33:57.203Z,14.02
2022-11-05T19:36:31.250Z,15.88
2022-11-05T19:39:00.837Z,15.25
2022-11-05T19:41:30.167Z,14.63
2022-11-05T19:44:01.871Z,16.20
2022-11-05T19:46:30.484Z,15.13
2022-11-05T19:48:59.637Z,20.20
2022-11-05T19:51:29.029Z,19.58
2022-11-05T19:53:56.656Z,19.20
2022-11-05T19:56:26.646Z,17.95
2022-11-05T19:58:55.410Z,22.05
2022-11-05T20:01:23.988Z,19.50
2022-11-05T20:03:52.081Z,17.92
2022-11-05T20:06:28.727Z,19.60
2022-11-05T20:09:20.632Z,16.75
2022-11-05T20:11:48.496Z,16.90
2022-11-05T20:14:15.597Z,17.20
2022-11-05T20:16:42.949Z,16.83
2022-11-05T20:19:13.286Z,16.73
2022-11-05T20:21:40.659Z,18.67
2022-11-05T20:24:08.436Z,19.90
2022-11-05T20:26:35.607Z,21.25
2022-11-05T20:29:02.911Z,20.50
2022-11-05T20:31:29.983Z,17.48
2022-11-05T20:33:57.298Z,19.08
2022-11-05T20:36:25.787Z,18.02
2022-11-05T20:38:58.256Z,21.30
2022-11-05T20:41:26.080Z,17.08
2022-11-05T20:43:53.640Z,17.63
2022-11-05T20:46:22.395Z,19.95
2022-11-05T20:48:50.016Z,20.02
2022-11-05T20:51:23.013Z,16.83
2022-11-05T20:56:26.196Z,14.57
2022-11-05T20:58:53.912Z,18.38
2022-11-05T21:01:21.130Z,16.45
2022-11-05T21:03:48.767Z,14.75
2022-11-05T21:06:16.752Z,16.15
2022-11-05T21:08:43.975Z,15.15
2022-11-05T21:11:11.342Z,13.27
2022-11-05T21:13:38.585Z,14.32
2022-11-05T21:16:07.521Z,11.48
2022-11-05T21:18:37.624Z,12.98
2022-11-05T21:21:06.650Z,13.02
2022-11-05T21:23:33.768Z,11.43
2022-11-05T21:26:07.977Z,11.15
2022-11-05T21:28:35.206Z,13.27
2022-11-05T21:31:03.483Z,12.60
2022-11-05T21:33:30.656Z,11.25
2022-11-05T21:35:57.736Z,21.73
2022-11-05T21:38:25.007Z,15.18
2022-11-05T21:40:52.227Z,13.60
2022-11-05T21:43:19.548Z,14.70
2022-11-05T21:45:46.729Z,9.70
2022-11-05T21:48:15.473Z,11.07
2022-11-05T21:51:02.377Z,12.48
2022-11-05T21:53:48.027Z,17.77
2022-11-05T21:56:39.636Z,12.48
2022-11-05T21:59:25.306Z,12.95
2022-11-05T22:02:01.700Z,9.95
2022-11-05T22:04:34.580Z,10.25
2022-11-05T22:07:02.415Z,11.02
2022-11-05T22:09:30.327Z,10.13
2022-11-05T22:11:57.362Z,12.40
2022-11-05T22:14:24.882Z,8.95
2022-11-05T22:16:51.948Z,9.95
2022-11-05T22:19:21.079Z,9.82
2022-11-05T22:21:48.488Z,11.65
2022-11-05T22:24:16.271Z,8.63
2022-11-05T22:26:44.564Z,10.70
2022-11-05T22:29:12.267Z,13.60
2022-11-05T22:31:39.547Z,10.10
2022-11-05T22:34:06.878Z,9.40
2022-11-05T22:36:34.747Z,11.25
2022-11-05T22:39:02.441Z,10.48
2022-11-05T22:41:29.801Z,9.48
2022-11-05T22:43:58.797Z,8.73
2022-11-05T22:46:26.901Z,9.05
2022-11-05T22:48:54.574Z,10.15
2022-11-05T22:51:24.279Z,9.75
2022-11-05T22:53:51.681Z,9.35
2022-11-05T22:56:21.246Z,9.30
2022-11-05T22:58:49.069Z,9.18
2022-11-05T23:01:21.463Z,9.65
2022-11-05T23:03:49.863Z,8.48
2022-11-05T23:06:37.929Z,8.10
2022-11-05T23:09:36.096Z,8.32
2022-11-05T23:12:06.091Z,8.07
2022-11-05T23:14:33.320Z,8.27
2022-11-05T23:17:18.883Z,10.15
2022-11-05T23:20:04.592Z,8.05
2022-11-05T23:22:50.608Z,8.38
2022-11-05T23:25:20.993Z,7.05
2022-11-05T23:27:50.683Z,7.85
2022-11-05T23:30:20.810Z,8.88
2022-11-05T23:32:48.869Z,8.13
2022-11-05T23:35:40.707Z,9.30
2022-11-05T23:38:28.195Z,9.77
2022-11-05T23:41:18.291Z,9.02
2022-11-05T23:44:04.069Z,8.98
2022-11-05T23:46:49.730Z,10.02
2022-11-05T23:49:16.796Z,11.27
2022-11-05T23:51:44.103Z,8.70
2022-11-05T23:54:11.291Z,8.32
2022-11-05T23:56:38.370Z,11.23
2022-11-05T23:59:05.723Z,9.45
